Time;durP1;ratioP1;P1;durP2;ratioP2;P2;SDS_P1;SDS_P2;PMS_P1;PMS_P2;Temp;Humidity;BMP_temperature;BMP_pressure;BME280_temperature;BME280_humidity;BME280_pressure;Samples;Min_cycle;Max_cycle;Signal;HPM_P1;HPM_P2
2022/04/05 00:02:04;;;;;;;7.77;7.03;;;6.00;99.90;;;6.66;100.00;-19953.66;5031329;28;20312;-60
2022/04/05 00:04:32;;;;;;;8.23;7.43;;;5.90;99.90;;;6.57;100.00;-19950.59;5031757;28;20290;-60
2022/04/05 00:07:00;;;;;;;8.07;7.27;;;5.90;99.90;;;6.46;100.00;-19946.66;5031264;28;20215;-60
2022/04/05 00:09:28;;;;;;;8.23;7.43;;;5.80;99.90;;;6.38;100.00;-19943.94;5032177;28;20246;-60
2022/04/05 00:11:56;;;;;;;8.17;7.37;;;5.70;99.90;;;6.39;100.00;-19944.44;5031222;28;20315;-58
2022/04/05 00:14:24;;;;;;;8.07;7.27;;;5.70;99.90;;;6.15;100.00;-19936.41;5031522;28;20310;-60
2022/04/05 00:16:54;;;;;;;8.83;8.00;;;5.60;99.90;;;6.06;100.00;-19933.34;5031042;28;20662;-59
2022/04/05 00:19:22;;;;;;;7.90;7.20;;;5.50;99.90;;;6.28;100.00;-19940.69;5031563;28;20229;-60
2022/04/05 00:21:50;;;;;;;7.90;7.13;;;5.50;99.90;;;6.14;100.00;-19936.06;5031690;28;20290;-60
2022/04/05 00:24:18;;;;;;;9.00;7.87;;;5.50;99.90;;;6.22;100.00;-19938.47;5031038;28;20318;-60
2022/04/05 00:26:47;;;;;;;7.77;7.00;;;5.40;99.90;;;6.19;100.00;-19937.59;5031048;28;20239;-60
2022/04/05 00:29:15;;;;;;;8.60;7.80;;;5.50;99.90;;;6.12;100.00;-19935.22;5030853;28;20234;-60
2022/04/05 00:31:43;;;;;;;8.33;7.40;;;5.50;99.90;;;6.15;100.00;-19936.25;5031021;28;20312;-60
2022/04/05 00:34:13;;;;;;;8.70;7.80;;;5.50;99.90;;;6.13;100.00;-19935.72;5030797;28;20608;-61
2022/04/05 00:36:41;;;;;;;8.77;7.97;;;5.50;99.90;;;6.23;100.00;-19938.97;5031584;28;20188;-60
2022/04/05 00:39:09;;;;;;;8.27;7.40;;;5.50;99.90;;;6.33;100.00;-19942.38;5030713;28;20237;-60
2022/04/05 00:41:37;;;;;;;9.13;8.10;;;5.50;99.90;;;6.29;100.00;-19941.03;5031043;28;20745;-60
2022/04/05 00:44:06;;;;;;;8.00;7.23;;;5.60;99.90;;;6.29;100.00;-19941.03;5031316;28;20601;-59
2022/04/05 00:46:33;;;;;;;8.97;8.03;;;5.60;99.90;;;6.33;100.00;-19942.38;5031179;28;20227;-60
2022/04/05 00:49:03;;;;;;;9.23;8.33;;;5.60;99.90;;;6.24;100.00;-19939.31;5030454;28;20212;-60
2022/04/05 00:51:32;;;;;;;8.53;7.73;;;5.50;99.90;;;6.32;100.00;-19942.03;5030861;28;20302;-58
2022/04/05 00:54:05;;;;;;;8.87;8.03;;;5.50;99.90;;;6.34;100.00;-19942.72;5030470;28;20671;-59
2022/04/05 00:56:36;;;;;;;8.93;8.07;;;5.50;99.90;;;6.20;100.00;-19937.94;5030730;28;20230;-59
2022/04/05 00:59:06;;;;;;;9.77;8.20;;;5.50;99.90;;;6.21;100.00;-19938.13;5030508;28;20801;-60
2022/04/05 01:01:37;;;;;;;9.17;8.27;;;5.40;99.90;;;6.14;100.00;-19936.06;5030267;28;20265;-60
2022/04/05 01:04:07;;;;;;;8.57;7.77;;;5.40;99.90;;;6.23;100.00;-19938.97;5030472;28;20624;-61
2022/04/05 01:06:44;;;;;;;9.20;8.30;;;5.40;99.90;;;6.28;100.00;-19940.69;5031088;28;20224;-59
2022/04/05 01:09:12;;;;;;;10.03;8.83;;;5.40;99.90;;;6.11;100.00;-19935.03;5030435;28;20325;-59
2022/04/05 01:11:41;;;;;;;9.20;8.30;;;5.40;99.90;;;6.08;100.00;-19933.84;5030234;28;20655;-60
2022/04/05 01:14:09;;;;;;;9.30;8.03;;;5.40;99.90;;;6.19;100.00;-19937.59;5030099;28;20232;-60
2022/04/05 01:16:39;;;;;;;9.90;8.90;;;5.40;99.90;;;6.02;100.00;-19931.97;5030657;28;20254;-60
2022/04/05 01:19:08;;;;;;;9.00;8.07;;;5.40;99.90;;;6.22;100.00;-19938.47;5030000;28;20206;-62
2022/04/05 01:21:38;;;;;;;8.80;8.00;;;5.40;99.90;;;6.28;100.00;-19940.50;5030939;28;20309;-60
2022/04/05 01:24:12;;;;;;;9.00;8.10;;;5.50;99.90;;;6.21;100.00;-19938.28;5030210;28;20254;-62
2022/04/05 01:26:43;;;;;;;9.30;8.40;;;5.50;99.90;;;6.38;100.00;-19944.09;5029968;28;20654;-59
2022/04/05 01:29:12;;;;;;;8.87;7.97;;;5.50;99.90;;;6.32;100.00;-19942.03;5030083;28;20323;-60
2022/04/05 01:31:44;;;;;;;9.10;8.20;;;5.50;99.90;;;6.27;100.00;-19940.34;5029915;28;20717;-59
2022/04/05 01:34:14;;;;;;;9.13;8.23;;;5.50;99.90;;;6.29;100.00;-19941.03;5030111;28;20279;-60
2022/04/05 01:36:43;;;;;;;9.20;8.13;;;5.60;99.90;;;6.32;100.00;-19941.88;5031133;28;20267;-60
2022/04/05 01:39:15;;;;;;;8.90;8.10;;;5.50;99.90;;;6.22;100.00;-19938.63;5029987;28;20649;-61
2022/04/05 01:41:43;;;;;;;9.20;8.00;;;5.50;99.90;;;6.26;100.00;-19940.00;5030148;28;20341;-60
2022/04/05 01:44:14;;;;;;;8.97;8.17;;;5.50;99.90;;;6.30;100.00;-19941.38;5029970;28;20392;-60
2022/04/05 01:46:41;;;;;;;9.13;8.23;;;5.50;99.90;;;6.27;100.00;-19940.34;5030268;28;20223;-60
2022/04/05 01:49:13;;;;;;;8.03;7.23;;;5.50;99.90;;;6.13;100.00;-19935.72;5029866;28;20238;-59
2022/04/05 01:51:44;;;;;;;8.20;7.40;;;5.40;99.90;;;6.01;100.00;-19931.44;5030752;28;20192;-60
2022/04/05 01:54:16;;;;;;;8.33;7.53;;;5.30;99.90;;;6.14;100.00;-19936.06;5029834;28;20269;-59
2022/04/05 01:56:47;;;;;;;7.73;6.93;;;5.40;99.90;;;6.21;100.00;-19938.28;5029981;28;20246;-60
2022/04/05 01:59:18;;;;;;;7.97;7.07;;;5.40;99.90;;;6.12;100.00;-19935.38;5029828;28;20237;-61
2022/04/05 02:01:46;;;;;;;8.07;7.23;;;5.30;99.90;;;6.13;100.00;-19935.56;5030200;28;20319;-59
2022/04/05 02:04:15;;;;;;;8.17;7.37;;;5.30;99.90;;;6.14;100.00;-19936.06;5029832;28;20317;-59
2022/04/05 02:06:44;;;;;;;7.67;6.77;;;5.30;99.90;;;6.14;100.00;-19936.06;5030597;28;20316;-62
2022/04/05 02:09:15;;;;;;;7.13;6.43;;;5.30;99.90;;;6.15;100.00;-19936.41;5029686;28;20224;-60
2022/04/05 02:11:46;;;;;;;7.80;6.90;;;5.30;99.90;;;6.05;100.00;-19932.97;5029773;28;20722;-60
2022/04/05 02:14:16;;;;;;;7.93;6.97;;;5.30;99.90;;;6.03;100.00;-19932.31;5033539;28;20241;-60
2022/04/05 02:16:44;;;;;;;6.70;6.10;;;5.20;99.90;;;6.05;100.00;-19932.81;5033849;28;20319;-61
2022/04/05 02:19:12;;;;;;;7.17;6.47;;;5.20;99.90;;;5.90;100.00;-19927.84;5033490;28;20240;-60
2022/04/05 02:21:40;;;;;;;7.20;6.50;;;5.20;99.90;;;6.15;100.00;-19936.25;5034176;28;20346;-61
2022/04/05 02:24:08;;;;;;;7.33;6.57;;;5.30;99.90;;;5.96;100.00;-19929.91;5033305;28;20227;-61
2022/04/05 02:26:39;;;;;;;6.77;6.07;;;5.20;99.90;;;5.86;100.00;-19926.31;5033353;28;20584;-62
2022/04/05 02:29:07;;;;;;;7.13;6.13;;;5.20;99.90;;;5.93;100.00;-19928.72;5033446;28;20313;-62
2022/04/05 02:31:35;;;;;;;6.80;6.20;;;5.20;99.90;;;6.02;100.00;-19931.78;5033273;28;20309;-61
2022/04/05 02:34:03;;;;;;;6.90;6.20;;;5.10;99.90;;;5.88;100.00;-19927.00;5033188;28;20245;-60
2022/04/05 02:36:31;;;;;;;6.43;5.83;;;5.10;99.90;;;5.94;100.00;-19929.06;5033810;28;20202;-61
2022/04/05 02:39:00;;;;;;;6.43;5.83;;;5.10;99.90;;;5.88;100.00;-19927.00;5033183;28;20318;-61
2022/04/05 02:41:28;;;;;;;6.43;5.83;;;5.10;99.90;;;5.90;100.00;-19927.84;5032974;28;20219;-62
2022/04/05 02:43:58;;;;;;;7.20;6.50;;;5.10;99.90;;;5.92;100.00;-19928.53;5030560;28;20312;-61
2022/04/05 02:46:27;;;;;;;6.63;6.03;;;5.10;99.90;;;5.86;100.00;-19926.50;5013402;28;20306;-60
2022/04/05 02:48:55;;;;;;;6.17;5.63;;;5.10;99.90;;;5.86;100.00;-19926.50;5013415;28;20209;-60
2022/04/05 02:51:24;;;;;;;7.47;6.67;;;5.10;99.90;;;5.72;100.00;-19921.53;5014374;28;20215;-61
2022/04/05 02:53:52;;;;;;;6.30;5.70;;;5.00;99.90;;;5.86;100.00;-19926.31;5013416;28;20318;-59
2022/04/05 02:56:20;;;;;;;7.87;7.07;;;5.00;99.90;;;5.96;100.00;-19929.75;5013164;28;20309;-61
2022/04/05 02:58:48;;;;;;;6.43;5.53;;;5.00;99.90;;;5.82;100.00;-19925.13;5013356;28;20305;-61
2022/04/05 03:01:18;;;;;;;6.57;5.93;;;5.00;99.90;;;5.75;100.00;-19922.56;5013155;28;20310;-61
2022/04/05 03:03:47;;;;;;;6.10;5.23;;;5.00;99.90;;;5.80;100.00;-19924.44;5029906;28;20202;-60
2022/04/05 03:06:16;;;;;;;5.83;5.23;;;5.00;99.90;;;5.91;100.00;-19928.22;5032355;28;20244;-61
2022/04/05 03:08:46;;;;;;;5.90;5.30;;;5.00;99.90;;;5.79;100.00;-19923.94;5032755;28;20229;-59
2022/04/05 03:11:14;;;;;;;5.27;4.77;;;5.00;99.90;;;5.82;100.00;-19924.94;5032207;28;20232;-60
2022/04/05 03:13:47;;;;;;;5.47;4.90;;;5.00;99.90;;;5.90;100.00;-19927.69;5032470;28;20315;-60
2022/04/05 03:16:15;;;;;;;5.40;4.70;;;5.00;99.90;;;5.69;100.00;-19920.50;5032718;28;20713;-61
2022/04/05 03:18:47;;;;;;;5.23;4.73;;;5.00;99.90;;;5.83;100.00;-19925.31;5033207;28;20201;-61
2022/04/05 03:21:15;;;;;;;5.20;4.70;;;5.00;99.90;;;5.71;100.00;-19921.38;5032455;28;20329;-62
2022/04/05 03:23:43;;;;;;;5.03;4.53;;;4.90;99.90;;;5.87;100.00;-19926.84;5031790;28;20305;-60
2022/04/05 03:26:12;;;;;;;5.13;4.63;;;5.00;99.90;;;5.76;100.00;-19923.06;5031909;28;20317;-61
2022/04/05 03:28:40;;;;;;;4.73;4.23;;;4.90;99.90;;;5.71;100.00;-19921.19;5032208;28;20254;-59
2022/04/05 03:31:08;;;;;;;4.90;4.27;;;4.90;99.90;;;5.97;100.00;-19930.25;5032013;28;20674;-61
2022/04/05 03:33:36;;;;;;;4.60;4.20;;;5.00;99.90;;;5.87;100.00;-19926.66;5032413;28;20655;-61
2022/04/05 03:36:06;;;;;;;4.93;4.43;;;5.00;99.90;;;5.85;100.00;-19926.16;5031965;28;20315;-59
2022/04/05 03:38:34;;;;;;;4.53;4.10;;;5.00;99.90;;;5.84;100.00;-19925.63;5032225;28;20648;-62
2022/04/05 03:41:02;;;;;;;4.73;3.83;;;5.00;99.90;;;5.77;100.00;-19923.25;5031650;28;20320;-60
2022/04/05 03:43:36;;;;;;;5.63;4.33;;;5.00;99.90;;;5.74;100.00;-19922.38;5032152;28;20272;-60
2022/04/05 03:46:04;;;;;;;4.73;4.20;;;4.90;99.90;;;5.67;100.00;-19919.81;5031720;28;20202;-60
2022/04/05 03:48:32;;;;;;;4.43;4.03;;;4.90;99.90;;;5.76;100.00;-19922.91;5032422;28;20228;-60
2022/04/05 03:51:01;;;;;;;4.33;3.90;;;4.90;99.90;;;5.73;100.00;-19922.03;5031611;28;20241;-60
2022/04/05 03:53:31;;;;;;;4.77;4.33;;;5.00;99.90;;;5.70;100.00;-19920.84;5012210;28;20253;-62
2022/04/05 03:55:59;;;;;;;4.77;4.10;;;4.90;99.90;;;5.69;100.00;-19920.50;5011650;28;20736;-60
2022/04/05 03:58:26;;;;;;;4.90;4.13;;;4.90;99.90;;;5.71;100.00;-19921.19;5012144;28;20235;-60
2022/04/05 04:00:54;;;;;;;4.40;4.00;;;4.90;99.90;;;5.74;100.00;-19922.22;5011709;28;20238;-61
2022/04/05 04:03:22;;;;;;;4.50;4.10;;;4.90;99.90;;;5.74;100.00;-19922.38;5025406;28;20205;-61
2022/04/05 04:05:51;;;;;;;4.43;3.80;;;5.00;99.90;;;5.81;100.00;-19924.59;5031418;28;20237;-60
2022/04/05 04:08:19;;;;;;;4.43;3.80;;;5.00;99.90;;;5.79;100.00;-19923.94;5031728;28;20230;-61
2022/04/05 04:10:48;;;;;;;4.70;4.20;;;5.00;99.90;;;5.80;100.00;-19924.28;5031376;28;20320;-60
2022/04/05 04:13:17;;;;;;;4.83;4.40;;;4.90;99.90;;;5.68;100.00;-19920.16;5031392;28;20552;-61
2022/04/05 04:15:45;;;;;;;4.83;4.37;;;4.90;99.90;;;5.90;100.00;-19927.84;5031640;28;20670;-61
2022/04/05 04:18:13;;;;;;;6.73;4.63;;;5.00;99.90;;;5.72;100.00;-19921.69;5031088;28;20260;-61
2022/04/05 04:20:42;;;;;;;5.33;4.23;;;5.00;99.90;;;5.84;100.00;-19925.81;5031408;28;20671;-61
2022/04/05 04:23:11;;;;;;;5.27;4.50;;;5.00;99.90;;;5.84;100.00;-19925.63;5031223;28;20236;-59
2022/04/05 04:25:47;;;;;;;6.17;5.57;;;5.00;99.90;;;5.86;100.00;-19926.31;5031277;28;20242;-62
2022/04/05 04:28:15;;;;;;;5.57;4.97;;;5.00;99.90;;;5.79;100.00;-19924.09;5031226;28;20301;-63
2022/04/05 04:30:43;;;;;;;5.27;4.43;;;5.00;99.90;;;5.66;100.00;-19919.47;5031491;28;20245;-60
2022/04/05 04:33:13;;;;;;;6.40;5.47;;;5.00;99.90;;;5.70;100.00;-19921.03;5030604;28;20713;-59
2022/04/05 04:35:43;;;;;;;6.10;5.50;;;4.90;99.90;;;5.79;100.00;-19923.94;5030288;28;20226;-61
2022/04/05 04:38:12;;;;;;;7.83;6.33;;;5.00;99.90;;;5.89;100.00;-19927.34;5030557;28;20324;-60
2022/04/05 04:40:41;;;;;;;7.07;6.37;;;5.00;99.90;;;5.90;100.00;-19927.69;5030993;28;20224;-60
2022/04/05 04:43:10;;;;;;;8.13;6.40;;;5.00;99.90;;;6.03;100.00;-19932.31;5030966;28;20294;-61
2022/04/05 04:45:38;;;;;;;7.20;6.50;;;5.10;99.90;;;6.07;100.00;-19933.66;5031493;28;20248;-60
2022/04/05 04:48:06;;;;;;;8.33;7.30;;;5.20;99.90;;;6.06;100.00;-19933.34;5030398;28;20721;-60
2022/04/05 04:50:34;;;;;;;9.13;7.60;;;5.20;99.90;;;6.03;100.00;-19932.13;5030725;28;20222;-59
2022/04/05 04:53:03;;;;;;;9.07;7.57;;;5.20;99.90;;;6.23;100.00;-19938.97;5014862;28;20231;-61
2022/04/05 04:55:32;;;;;;;8.60;7.70;;;5.20;99.90;;;6.17;100.00;-19937.09;5010792;28;20327;-59
2022/04/05 04:58:22;;;;;;;9.63;8.40;;;5.20;99.90;;;6.03;100.00;-19932.13;5010837;28;20224;-59
2022/04/05 05:00:50;;;;;;;8.60;7.77;;;5.30;99.90;;;6.10;100.00;-19934.53;5011060;28;20693;-61
2022/04/05 05:03:19;;;;;;;9.97;8.07;;;5.30;99.90;;;6.07;100.00;-19933.50;5024274;28;20227;-62
2022/04/05 05:05:47;;;;;;;11.50;8.30;;;5.30;99.90;;;6.01;100.00;-19931.44;5030681;28;20606;-61
2022/04/05 05:08:15;;;;;;;8.97;8.07;;;5.30;99.90;;;6.17;100.00;-19937.09;5030476;28;20779;-61
2022/04/05 05:10:43;;;;;;;9.43;8.07;;;5.30;99.90;;;6.36;100.00;-19943.25;5030568;28;20256;-61
2022/04/05 05:13:11;;;;;;;8.90;7.27;;;5.30;99.90;;;6.22;100.00;-19938.47;5030135;28;20206;-60
2022/04/05 05:15:41;;;;;;;8.43;7.30;;;5.40;99.90;;;6.21;100.00;-19938.28;5030640;28;20223;-61
2022/04/05 05:18:09;;;;;;;8.47;7.60;;;5.40;99.90;;;6.12;100.00;-19935.22;5029932;28;20251;-60
2022/04/05 05:20:37;;;;;;;7.93;7.13;;;5.30;99.90;;;6.15;100.00;-19936.25;5030238;28;20257;-60
2022/04/05 05:23:06;;;;;;;8.20;7.10;;;5.30;99.90;;;6.21;100.00;-19938.13;5030361;28;20252;-61
2022/04/05 05:25:34;;;;;;;8.20;7.40;;;5.40;99.90;;;6.15;100.00;-19936.41;5029921;28;20717;-61
2022/04/05 05:28:02;;;;;;;8.27;7.47;;;5.40;99.90;;;6.25;100.00;-19939.66;5029973;28;20676;-61
2022/04/05 05:30:30;;;;;;;8.37;7.37;;;5.40;99.90;;;6.15;100.00;-19936.41;5030839;28;20285;-60
2022/04/05 05:32:59;;;;;;;8.87;7.73;;;5.40;99.90;;;6.16;100.00;-19936.56;5029582;28;20230;-61
2022/04/05 05:35:27;;;;;;;8.37;7.53;;;5.40;99.90;;;6.24;100.00;-19939.31;5030067;28;20318;-60
2022/04/05 05:37:57;;;;;;;9.60;7.57;;;5.50;99.90;;;6.38;100.00;-19944.09;5029898;28;20741;-61
2022/04/05 05:40:26;;;;;;;9.20;8.27;;;5.50;99.90;;;6.30;100.00;-19941.38;5030100;28;20235;-60
2022/04/05 05:42:58;;;;;;;9.90;8.67;;;5.50;99.90;;;6.56;100.00;-19950.25;5031039;28;20196;-61
2022/04/05 05:45:28;;;;;;;9.80;8.57;;;5.60;99.90;;;6.59;100.00;-19951.09;5031366;28;20232;-62
2022/04/05 05:47:56;;;;;;;10.53;9.37;;;5.70;99.90;;;6.76;100.00;-19957.09;5033557;28;20275;-60
2022/04/05 05:50:26;;;;;;;10.70;9.60;;;5.80;99.90;;;6.89;100.00;-19961.34;5033966;28;20724;-61
2022/04/05 05:52:56;;;;;;;11.57;9.93;;;5.90;99.90;;;7.11;100.00;-19969.03;5019083;28;20643;-60
2022/04/05 05:55:24;;;;;;;10.73;9.33;;;6.00;99.90;;;7.14;100.00;-19970.06;5014013;28;20225;-60
2022/04/05 05:57:52;;;;;;;11.93;9.83;;;6.20;99.90;;;7.09;100.00;-19968.19;5014510;28;20210;-60
2022/04/05 06:00:22;;;;;;;10.17;8.57;;;6.20;99.90;;;7.20;100.00;-19972.13;5014590;28;20297;-60
2022/04/05 06:02:56;;;;;;;9.17;8.23;;;6.30;99.90;;;7.33;100.00;-19976.56;5022871;28;20712;-60
2022/04/05 06:05:27;;;;;;;9.60;7.73;;;6.40;99.90;;;7.48;100.00;-19981.53;5033762;28;20248;-60
2022/04/05 06:07:55;;;;;;;6.50;5.90;;;6.50;99.90;;;7.46;100.00;-19980.84;5033468;28;20255;-61
2022/04/05 06:10:24;;;;;;;6.10;5.50;;;6.50;99.90;;;7.43;100.00;-19979.97;5026676;28;20261;-61
2022/04/05 06:12:55;;;;;;;5.27;4.77;;;6.60;99.90;;;7.63;100.00;-19986.47;5014030;28;20663;-60
2022/04/05 06:15:25;;;;;;;5.33;4.83;;;6.70;99.90;;;7.52;100.00;-19982.72;5014268;28;20230;-59
2022/04/05 06:17:54;;;;;;;5.37;4.87;;;6.70;99.90;;;7.81;100.00;-19992.81;5013309;28;20743;-59
2022/04/05 06:20:23;;;;;;;5.20;4.60;;;6.80;99.90;;;7.96;100.00;-19997.75;5029378;28;20324;-59
2022/04/05 06:22:56;;;;;;;4.80;4.40;;;6.90;99.90;;;8.11;100.00;-20002.88;5033345;28;20221;-61
2022/04/05 06:25:29;;;;;;;3.97;3.60;;;7.00;99.90;;;8.27;100.00;-20008.34;5033521;28;20317;-60
2022/04/05 06:27:58;;;;;;;3.63;3.33;;;7.10;99.90;;;8.24;100.00;-20007.50;5033780;28;20193;-61
2022/04/05 06:30:26;;;;;;;3.93;3.63;;;7.10;99.90;;;8.45;100.00;-20014.50;5033825;28;20211;-59
2022/04/05 06:33:07;;;;;;;3.80;3.50;;;7.20;99.90;;;8.44;100.00;-20014.34;5032985;28;20229;-61
2022/04/05 06:35:37;;;;;;;3.73;3.43;;;7.30;99.90;;;8.40;100.00;-20012.78;5033259;28;20312;-59
2022/04/05 06:38:07;;;;;;;3.23;2.93;;;7.30;99.90;;;8.65;100.00;-20021.34;5033218;28;20221;-62
2022/04/05 06:40:35;;;;;;;3.40;3.10;;;7.50;99.90;;;8.88;100.00;-20029.19;5032768;28;20249;-60
2022/04/05 06:43:03;;;;;;;3.07;2.87;;;7.60;99.90;;;8.90;100.00;-20029.88;5032901;28;20303;-60
2022/04/05 06:45:32;;;;;;;3.53;3.23;;;7.70;99.90;;;8.96;100.00;-20031.94;5033972;28;20212;-61
2022/04/05 06:48:00;;;;;;;4.00;3.50;;;7.70;99.90;;;8.90;100.00;-20029.72;5032724;28;20666;-60
2022/04/05 06:50:28;;;;;;;3.07;2.87;;;7.70;99.90;;;8.92;100.00;-20030.38;5032893;28;20419;-61
2022/04/05 06:52:59;;;;;;;2.80;2.60;;;7.70;99.90;;;9.05;100.00;-20035.00;5018084;28;20305;-60
2022/04/05 06:55:29;;;;;;;2.57;2.37;;;7.80;99.90;;;9.12;100.00;-20037.22;5012954;28;20297;-60
2022/04/05 06:57:58;;;;;;;2.60;2.40;;;7.90;99.90;;;9.32;100.00;-20044.06;5012465;28;20294;-60
2022/04/05 07:00:26;;;;;;;2.50;2.30;;;8.00;99.90;;;9.40;100.00;-20046.97;5013605;28;20634;-61
2022/04/05 07:02:57;;;;;;;2.60;2.40;;;8.10;99.90;;;9.45;100.00;-20048.66;5022327;28;20788;-59
2022/04/05 07:05:27;;;;;;;2.10;2.00;;;8.10;99.90;;;9.64;100.00;-20055.00;5032706;28;20724;-59
2022/04/05 07:07:56;;;;;;;2.30;2.10;;;8.30;99.90;;;9.64;100.00;-20055.00;5032614;28;20654;-62
2022/04/05 07:10:25;;;;;;;2.20;2.00;;;8.30;99.90;;;9.82;100.00;-20061.13;5032521;28;20225;-60
2022/04/05 07:12:54;;;;;;;1.83;1.73;;;8.40;99.90;;;9.98;100.00;-20066.59;5033081;28;20210;-59
2022/04/05 07:15:23;;;;;;;1.87;1.77;;;8.50;99.90;;;9.96;100.00;-20065.94;5032824;28;20280;-60
2022/04/05 07:17:51;;;;;;;2.20;2.00;;;8.50;99.90;;;9.91;100.00;-20064.22;5032178;28;20314;-61
2022/04/05 07:20:34;;;;;;;1.80;1.70;;;8.60;99.90;;;9.89;100.00;-20063.53;5032249;28;20674;-60
2022/04/05 07:23:03;;;;;;;1.53;1.43;;;8.60;99.90;;;9.73;100.00;-20058.25;5032694;28;20233;-61
2022/04/05 07:25:31;;;;;;;1.97;1.57;;;8.50;99.90;;;9.68;100.00;-20056.53;5026964;28;20317;-61
2022/04/05 07:28:02;;;;;;;2.00;1.80;;;8.50;99.90;;;9.70;100.00;-20057.03;5012912;28;20294;-59
2022/04/05 07:30:30;;;;;;;2.30;1.80;;;8.40;99.90;;;9.89;100.00;-20063.53;5013221;28;20282;-61
2022/04/05 07:32:58;;;;;;;1.50;1.40;;;8.60;99.90;;;10.07;100.00;-20069.50;5022530;28;20318;-60
2022/04/05 07:35:26;;;;;;;2.67;1.80;;;8.70;99.90;;;10.36;100.00;-20079.41;5031814;28;20322;-60
2022/04/05 07:37:54;;;;;;;1.47;1.37;;;8.80;99.90;;;10.53;100.00;-20085.41;5032131;28;20709;-60
2022/04/05 07:40:22;;;;;;;1.60;1.50;;;9.00;99.90;;;10.51;100.00;-20084.53;5032028;28;20221;-60
2022/04/05 07:42:50;;;;;;;1.67;1.57;;;9.00;99.90;;;10.79;100.00;-20094.13;5032652;28;20229;-62
2022/04/05 07:45:20;;;;;;;1.70;1.60;;;9.20;99.90;;;11.18;100.00;-20107.25;5031820;28;20221;-60
2022/04/05 07:47:48;;;;;;;2.07;1.87;;;9.50;99.90;;;11.16;100.00;-20106.75;5031838;28;20260;-59
2022/04/05 07:50:16;;;;;;;2.17;1.57;;;9.60;99.90;;;11.18;100.00;-20107.25;5031628;28;20316;-60
2022/04/05 07:52:44;;;;;;;1.70;1.60;;;9.70;99.90;;;10.85;100.00;-20096.16;5018705;28;20253;-60
2022/04/05 07:55:13;;;;;;;1.50;1.40;;;9.60;99.90;;;10.79;100.00;-20094.13;5011865;28;20641;-60
2022/04/05 07:57:41;;;;;;;1.63;1.53;;;9.50;99.90;;;10.54;100.00;-20085.75;5012644;28;20209;-61
2022/04/05 08:00:11;;;;;;;1.80;1.70;;;9.40;99.90;;;10.36;100.00;-20079.41;5012076;28;20231;-59
2022/04/05 08:02:41;;;;;;;1.60;1.50;;;9.30;99.90;;;9.95;100.00;-20065.59;5019428;28;20639;-61
2022/04/05 08:05:15;;;;;;;1.60;1.50;;;9.00;99.90;;;9.93;100.00;-20064.91;5031743;28;20233;-60
2022/04/05 08:07:44;;;;;;;1.60;1.50;;;8.90;99.90;;;9.96;100.00;-20065.94;5031873;28;20713;-60
2022/04/05 08:10:14;;;;;;;1.70;1.60;;;8.90;99.90;;;9.77;100.00;-20059.44;5031428;28;20751;-59
2022/04/05 08:12:43;;;;;;;2.30;1.70;;;8.80;99.90;;;9.83;100.00;-20061.47;5031769;28;20654;-60
2022/04/05 08:15:13;;;;;;;1.73;1.63;;;8.80;99.90;;;9.79;100.00;-20060.28;5031261;28;20305;-59
2022/04/05 08:17:43;;;;;;;2.10;1.60;;;8.70;99.90;;;9.65;100.00;-20055.34;5031630;28;20285;-59
2022/04/05 08:20:12;;;;;;;2.10;1.67;;;8.60;99.90;;;9.52;100.00;-20051.06;5031623;28;20225;-58
2022/04/05 08:22:42;;;;;;;1.60;1.50;;;8.60;99.90;;;9.52;100.00;-20051.06;5018602;28;20306;-60
2022/04/05 08:25:14;;;;;;;4.03;1.67;;;8.50;99.90;;;9.50;100.00;-20050.22;5011346;28;20233;-56
2022/04/05 08:27:43;;;;;;;3.63;2.07;;;8.60;99.90;;;8.98;100.00;-20032.59;5011915;28;20179;-60
2022/04/05 08:30:15;;;;;;;3.03;2.03;;;8.20;99.90;;;8.75;100.00;-20024.59;5011594;28;20316;-60
2022/04/05 08:32:47;;;;;;;2.37;1.70;;;8.00;99.90;;;8.51;100.00;-20016.72;5019501;28;20230;-59
2022/04/05 08:35:19;;;;;;;3.90;1.93;;;7.80;99.90;;;8.31;100.00;-20009.72;5030954;28;20665;-61
2022/04/05 08:37:49;;;;;;;2.50;1.60;;;7.60;99.90;;;8.25;100.00;-20007.84;5031008;28;20325;-59
2022/04/05 08:40:21;;;;;;;3.37;2.10;;;7.40;99.90;;;8.17;100.00;-20004.94;5030630;28;20342;-58
2022/04/05 08:42:52;;;;;;;4.37;1.97;;;7.30;99.90;;;8.04;100.00;-20000.66;5031730;28;20187;-60
2022/04/05 08:45:22;;;;;;;3.10;1.57;;;7.10;99.90;;;7.93;100.00;-19996.72;5031356;28;20289;-59
2022/04/05 08:47:55;;;;;;;3.60;1.93;;;7.10;99.90;;;7.96;100.00;-19997.75;5031162;28;20221;-60
2022/04/05 08:50:25;;;;;;;3.83;2.10;;;7.00;99.90;;;7.89;100.00;-19995.34;5030816;28;20233;-59
2022/04/05 08:52:55;;;;;;;6.73;2.20;;;7.10;99.90;;;8.03;100.00;-20000.31;5016135;28;20228;-59
2022/04/05 08:55:24;;;;;;;2.47;2.03;;;7.10;99.90;;;7.74;100.00;-19990.22;5010907;28;20310;-59
2022/04/05 08:57:52;;;;;;;3.70;2.10;;;7.00;99.90;;;7.81;100.00;-19992.63;5011364;28;20703;-59
2022/04/05 09:00:22;;;;;;;5.80;2.50;;;7.00;99.90;;;7.84;100.00;-19993.66;5011324;28;20221;-60
2022/04/05 09:02:59;;;;;;;6.83;2.67;;;7.00;99.90;;;8.04;100.00;-20000.47;5020022;28;20299;-59
2022/04/05 09:05:33;;;;;;;6.00;2.67;;;7.00;99.90;;;8.16;100.00;-20004.75;5030506;28;20236;-60
2022/04/05 09:08:25;;;;;;;4.57;2.20;;;7.10;99.90;;;8.01;100.00;-19999.47;5030555;28;20232;-59
2022/04/05 09:11:10;;;;;;;2.67;2.43;;;7.20;99.90;;;8.11;100.00;-20002.88;5026316;28;20578;-60
2022/04/05 09:13:38;;;;;;;3.50;2.30;;;7.20;99.90;;;7.83;100.00;-19993.31;5030438;28;20251;-59
2022/04/05 09:16:08;;;;;;;4.33;2.57;;;7.10;99.90;;;7.78;100.00;-19991.78;5030261;28;20226;-59
2022/04/05 09:18:40;;;;;;;6.73;2.60;;;7.10;99.90;;;8.31;100.00;-20009.88;5020753;28;20214;-60
2022/04/05 09:21:11;;;;;;;5.93;2.30;;;7.30;99.90;;;8.63;100.00;-20020.66;5010149;28;20227;-60
2022/04/05 09:23:42;;;;;;;4.90;2.10;;;7.40;99.90;;;8.61;100.00;-20019.97;5010653;28;20226;-59
2022/04/05 09:26:13;;;;;;;4.53;2.70;;;7.50;99.90;;;8.62;100.00;-20020.31;5010585;28;20233;-59
2022/04/05 09:28:44;;;;;;;3.70;2.50;;;7.60;99.90;;;8.69;100.00;-20022.53;5010708;28;20245;-61
2022/04/05 09:31:14;;;;;;;3.47;2.70;;;7.70;99.90;;;8.88;100.00;-20029.03;5010982;28;20227;-60
2022/04/05 09:34:08;;;;;;;3.50;2.50;;;7.90;99.90;;;9.24;100.00;-20041.31;5027396;28;20209;-61
2022/04/05 09:36:40;;;;;;;4.10;2.70;;;8.00;99.90;;;9.41;100.00;-20047.13;5030476;28;20260;-61
2022/04/05 09:39:17;;;;;;;3.97;2.70;;;8.10;99.90;;;9.36;100.00;-20045.41;5029995;28;20308;-60
2022/04/05 09:41:47;;;;;;;4.13;2.70;;;8.20;99.90;;;9.30;100.00;-20043.38;5030030;28;20247;-58
2022/04/05 09:44:27;;;;;;;5.03;2.57;;;8.20;99.90;;;9.03;100.00;-20034.31;5029952;28;20234;-59
2022/04/05 09:47:07;;;;;;;5.70;3.00;;;8.10;99.90;;;9.03;100.00;-20034.16;5030061;28;20300;-59
2022/04/05 09:49:38;;;;;;;4.93;2.77;;;8.00;99.90;;;8.69;100.00;-20022.72;5030055;28;20232;-60
2022/04/05 09:52:22;;;;;;;5.97;3.00;;;7.80;99.90;;;8.61;100.00;-20019.97;5021930;28;20190;-59
2022/04/05 09:54:50;;;;;;;4.73;2.93;;;7.70;99.90;;;8.67;100.00;-20021.84;5011065;28;20272;-60
2022/04/05 09:57:30;;;;;;;4.80;3.17;;;7.70;99.90;;;8.67;100.00;-20021.84;5009860;28;20599;-60
2022/04/05 10:00:09;;;;;;;5.87;3.10;;;7.70;99.90;;;8.85;100.00;-20028.16;5010208;28;20233;-59
2022/04/05 10:02:58;;;;;;;6.77;2.60;;;7.70;99.90;;;8.97;100.00;-20032.09;5017079;28;20756;-58
2022/04/05 10:05:29;;;;;;;4.83;2.57;;;7.80;99.90;;;9.17;100.00;-20038.94;5029798;28;20222;-59
2022/04/05 10:07:57;;;;;;;4.93;2.90;;;7.90;99.90;;;9.65;100.00;-20055.34;5029741;28;20305;-58
2022/04/05 10:10:26;;;;;;;5.47;2.67;;;8.10;99.90;;;10.21;100.00;-20074.31;5029799;28;20444;-60
2022/04/05 10:12:55;;;;;;;4.87;2.80;;;8.40;99.90;;;10.80;100.00;-20094.44;5029558;28;20206;-61
2022/04/05 10:15:25;;;;;;;2.83;2.53;;;8.80;99.90;;;11.33;100.00;-20112.38;5015634;28;20237;-56
2022/04/05 10:17:54;;;;;;;3.50;2.30;;;9.20;99.90;;;11.50;100.00;-20118.19;5009805;28;20638;-59
2022/04/05 10:20:25;;;;;;;5.80;2.67;;;9.50;99.90;;;11.83;100.00;-20129.63;5009898;28;20736;-59
2022/04/05 10:23:00;;;;;;;5.10;2.70;;;9.70;99.90;;;11.94;100.00;-20133.38;5010025;28;20531;-61
2022/04/05 10:25:30;;;;;;;3.73;2.40;;;10.00;99.90;;;11.78;100.00;-20127.94;5010080;28;20690;-61
2022/04/05 10:27:59;;;;;;;3.73;2.27;;;10.00;99.90;;;11.64;100.00;-20123.16;5010101;28;20270;-59
2022/04/05 10:30:33;;;;;;;5.10;2.83;;;9.80;99.90;;;11.76;100.00;-20127.06;5010670;28;20213;-59